ORB249 UMKK-ULMM
Flight info
| Callsign | ORB249 |
|---|---|
| Flight time | 2h 32m |
| Altitude | 34000 |
| Route | PELUG3N PELUG DCT OTVOV DCT KEDUX/N0465F350 DCT PIVAX DCT NEKET DCT PIRUX DCT PISIM DCT PIDIN DCT ARANS/K0880F350 DCT PISIS DCT AKARU DCT ROGOP T457 LULOR/K0880F360 T693 ASGOR ASGOR1H |
| Aircraft | B738/M-SDE2E3FGHIRWXY/LB1 |
Departure
| Time | 2026-04-26 16:46 |
|---|---|
| Airport | Khrabrovo Airport (UMKK) |
Arrival
| Time | 2026-04-26 19:18 |
|---|---|
| Airport | Emperor Nicholas II Murmansk Airport (ULMM) |
| Time | Latitude | Longitude | Altitude | Speed | Heading |
|---|---|---|---|---|---|
| 2026-04-26 16:16 | 54.88412 | 20.58649 | 26 ft | 0 kts | 155° |
| 2026-04-26 16:28 | 54.88424 | 20.58639 | 26 ft | 4 kts | 147° |
| 2026-04-26 16:29 | 54.88444 | 20.58609 | 30 ft | 4 kts | 123° |
| 2026-04-26 16:29 | 54.88454 | 20.58568 | 30 ft | 4 kts | 91° |
| 2026-04-26 16:29 | 54.88451 | 20.58538 | 31 ft | 0 kts | 65° |
| 2026-04-26 16:31 | 54.88455 | 20.58550 | 31 ft | 4 kts | 63° |
| 2026-04-26 16:31 | 54.88473 | 20.58615 | 29 ft | 7 kts | 64° |
| 2026-04-26 16:32 | 54.88495 | 20.58699 | 29 ft | 8 kts | 67° |
| 2026-04-26 16:32 | 54.88510 | 20.58761 | 26 ft | 9 kts | 66° |
| 2026-04-26 16:32 | 54.88573 | 20.58805 | 28 ft | 9 kts | 337° |
| 2026-04-26 16:32 | 54.88631 | 20.58760 | 25 ft | 10 kts | 335° |
| 2026-04-26 16:33 | 54.88683 | 20.58797 | 29 ft | 10 kts | 65° |
| 2026-04-26 16:33 | 54.88714 | 20.58918 | 26 ft | 11 kts | 61° |
| 2026-04-26 16:33 | 54.88727 | 20.58947 | 25 ft | 0 kts | 44° |
| 2026-04-26 16:36 | 54.88746 | 20.58972 | 29 ft | 6 kts | 32° |
| 2026-04-26 16:36 | 54.88789 | 20.59009 | 25 ft | 0 kts | 25° |
| 2026-04-26 16:41 | 54.88792 | 20.59012 | 25 ft | 3 kts | 25° |
| 2026-04-26 16:41 | 54.88845 | 20.59056 | 26 ft | 13 kts | 26° |
| 2026-04-26 16:41 | 54.88942 | 20.59150 | 28 ft | 19 kts | 36° |
| 2026-04-26 16:42 | 54.89033 | 20.59347 | 24 ft | 24 kts | 63° |
| 2026-04-26 16:42 | 54.89106 | 20.59620 | 22 ft | 26 kts | 65° |
| 2026-04-26 16:42 | 54.89184 | 20.59923 | 20 ft | 29 kts | 67° |
| 2026-04-26 16:42 | 54.89265 | 20.60238 | 24 ft | 28 kts | 65° |
| 2026-04-26 16:43 | 54.89342 | 20.60536 | 23 ft | 26 kts | 65° |
| 2026-04-26 16:43 | 54.89416 | 20.60816 | 20 ft | 25 kts | 65° |
| 2026-04-26 16:43 | 54.89489 | 20.61106 | 19 ft | 29 kts | 65° |
| 2026-04-26 16:43 | 54.89577 | 20.61440 | 21 ft | 31 kts | 65° |
| 2026-04-26 16:44 | 54.89663 | 20.61776 | 23 ft | 30 kts | 65° |
| 2026-04-26 16:44 | 54.89735 | 20.62059 | 24 ft | 23 kts | 66° |
| 2026-04-26 16:44 | 54.89769 | 20.62195 | 23 ft | 7 kts | 322° |
| 2026-04-26 16:44 | 54.89754 | 20.62129 | 26 ft | 9 kts | 243° |
| 2026-04-26 16:45 | 54.89662 | 20.61778 | 24 ft | 64 kts | 245° |
| 2026-04-26 16:45 | 54.89388 | 20.60720 | 22 ft | 125 kts | 245° |
| 2026-04-26 16:45 | 54.88987 | 20.59056 | 93 ft | 167 kts | 250° |
| 2026-04-26 16:45 | 54.88526 | 20.57111 | 619 ft | 181 kts | 249° |
| 2026-04-26 16:46 | 54.88037 | 20.55116 | 1422 ft | 180 kts | 263° |
| 2026-04-26 16:46 | 54.88118 | 20.53003 | 1779 ft | 180 kts | 303° |
| 2026-04-26 16:46 | 54.89116 | 20.51662 | 1891 ft | 195 kts | 347° |
| 2026-04-26 16:46 | 54.90478 | 20.51512 | 2458 ft | 191 kts | 350° |
| 2026-04-26 16:47 | 54.91761 | 20.50934 | 2937 ft | 197 kts | 339° |
| 2026-04-26 16:47 | 54.93065 | 20.50027 | 3313 ft | 205 kts | 337° |
| 2026-04-26 16:47 | 54.94391 | 20.49034 | 3849 ft | 208 kts | 336° |
| 2026-04-26 16:47 | 54.95718 | 20.48009 | 4464 ft | 209 kts | 336° |
| 2026-04-26 16:48 | 54.97053 | 20.46958 | 5050 ft | 212 kts | 336° |
| 2026-04-26 16:48 | 54.98387 | 20.45891 | 5671 ft | 210 kts | 336° |
| 2026-04-26 16:48 | 54.99718 | 20.44814 | 6200 ft | 212 kts | 335° |
| 2026-04-26 16:48 | 55.01065 | 20.43722 | 6725 ft | 217 kts | 335° |
| 2026-04-26 16:49 | 55.02498 | 20.42552 | 7033 ft | 233 kts | 335° |
| 2026-04-26 16:49 | 55.03960 | 20.41352 | 7677 ft | 237 kts | 335° |
| 2026-04-26 16:49 | 55.05448 | 20.40125 | 8437 ft | 237 kts | 335° |
| 2026-04-26 16:49 | 55.06939 | 20.38889 | 9152 ft | 238 kts | 335° |
| 2026-04-26 16:50 | 55.08444 | 20.37645 | 9833 ft | 240 kts | 335° |
| 2026-04-26 16:50 | 55.09959 | 20.36390 | 10478 ft | 244 kts | 335° |
| 2026-04-26 16:50 | 55.11553 | 20.35070 | 10678 ft | 263 kts | 335° |
| 2026-04-26 16:50 | 55.13266 | 20.33647 | 10840 ft | 282 kts | 335° |
| 2026-04-26 16:51 | 55.15134 | 20.32290 | 11040 ft | 299 kts | 345° |
| 2026-04-26 16:51 | 55.17269 | 20.31939 | 11203 ft | 318 kts | 356° |
| 2026-04-26 16:51 | 55.19537 | 20.31821 | 11344 ft | 334 kts | 355° |
| 2026-04-26 16:51 | 55.21889 | 20.31612 | 11699 ft | 342 kts | 354° |
| 2026-04-26 16:52 | 55.24269 | 20.31379 | 12287 ft | 343 kts | 354° |
| 2026-04-26 16:52 | 55.25848 | 20.31224 | 12728 ft | 343 kts | 354° |
| 2026-04-26 16:52 | 55.29044 | 20.30913 | 13575 ft | 345 kts | 354° |
| 2026-04-26 16:52 | 55.31449 | 20.30685 | 14171 ft | 347 kts | 354° |
| 2026-04-26 16:53 | 55.33864 | 20.30458 | 14738 ft | 348 kts | 354° |
| 2026-04-26 16:53 | 55.36286 | 20.30234 | 15312 ft | 350 kts | 354° |
| 2026-04-26 16:53 | 55.38722 | 20.30008 | 15902 ft | 351 kts | 354° |
| 2026-04-26 16:53 | 55.41167 | 20.29781 | 16472 ft | 352 kts | 353° |
| 2026-04-26 16:54 | 55.43617 | 20.29555 | 17094 ft | 353 kts | 353° |
| 2026-04-26 16:54 | 55.46044 | 20.28971 | 17648 ft | 352 kts | 345° |
| 2026-04-26 16:54 | 55.48404 | 20.27815 | 18238 ft | 352 kts | 340° |
| 2026-04-26 16:54 | 55.50670 | 20.26162 | 18754 ft | 354 kts | 333° |
| 2026-04-26 16:55 | 55.52842 | 20.24103 | 19195 ft | 356 kts | 332° |
| 2026-04-26 16:55 | 55.55024 | 20.21999 | 19601 ft | 359 kts | 332° |
| 2026-04-26 16:55 | 55.57222 | 20.19873 | 20000 ft | 361 kts | 332° |
| 2026-04-26 16:55 | 55.59404 | 20.17766 | 20400 ft | 363 kts | 332° |
| 2026-04-26 16:56 | 55.63871 | 20.13454 | 21192 ft | 368 kts | 332° |
| 2026-04-26 16:56 | 55.66125 | 20.11281 | 21569 ft | 370 kts | 332° |
| 2026-04-26 16:56 | 55.68393 | 20.09094 | 21944 ft | 372 kts | 332° |
| 2026-04-26 16:57 | 55.70675 | 20.06896 | 22296 ft | 375 kts | 332° |
| 2026-04-26 16:57 | 55.72972 | 20.04679 | 22653 ft | 377 kts | 332° |
| 2026-04-26 16:57 | 55.77607 | 20.00194 | 23309 ft | 382 kts | 331° |
| 2026-04-26 16:58 | 55.79945 | 19.97927 | 23636 ft | 384 kts | 331° |
| 2026-04-26 16:58 | 55.81503 | 19.96415 | 23842 ft | 385 kts | 331° |
| 2026-04-26 16:58 | 55.87029 | 19.91039 | 24482 ft | 389 kts | 331° |
| 2026-04-26 16:59 | 55.89408 | 19.88719 | 24745 ft | 391 kts | 331° |
| 2026-04-26 16:59 | 55.94195 | 19.84041 | 25257 ft | 394 kts | 331° |
| 2026-04-26 17:00 | 55.99018 | 19.79316 | 25868 ft | 395 kts | 331° |
| 2026-04-26 17:00 | 56.03803 | 19.74613 | 26632 ft | 391 kts | 331° |
| 2026-04-26 17:00 | 56.06185 | 19.72266 | 26918 ft | 391 kts | 331° |
| 2026-04-26 17:01 | 56.08572 | 19.69912 | 27222 ft | 392 kts | 331° |
| 2026-04-26 17:01 | 56.10957 | 19.67556 | 27560 ft | 391 kts | 331° |
| 2026-04-26 17:01 | 56.13337 | 19.65205 | 27963 ft | 389 kts | 331° |
| 2026-04-26 17:01 | 56.15704 | 19.62862 | 28354 ft | 388 kts | 331° |
| 2026-04-26 17:02 | 56.18112 | 19.60691 | 28680 ft | 389 kts | 338° |
| 2026-04-26 17:02 | 56.20750 | 19.59554 | 29008 ft | 392 kts | 348° |
| 2026-04-26 17:02 | 56.23479 | 19.59081 | 29259 ft | 397 kts | 353° |
| 2026-04-26 17:02 | 56.26271 | 19.59305 | 29286 ft | 410 kts | 4° |
| 2026-04-26 17:03 | 56.31902 | 19.61666 | 29477 ft | 418 kts | 7° |
| 2026-04-26 17:03 | 56.34728 | 19.62939 | 29611 ft | 419 kts | 7° |
| 2026-04-26 17:03 | 56.37556 | 19.64208 | 29861 ft | 418 kts | 7° |
| 2026-04-26 17:04 | 56.40383 | 19.65465 | 30030 ft | 418 kts | 7° |
| 2026-04-26 17:04 | 56.43211 | 19.66709 | 30214 ft | 418 kts | 7° |
| 2026-04-26 17:04 | 56.46031 | 19.67941 | 30395 ft | 417 kts | 7° |
| 2026-04-26 17:04 | 56.48849 | 19.69168 | 30542 ft | 417 kts | 7° |
| 2026-04-26 17:05 | 56.51670 | 19.70393 | 30677 ft | 417 kts | 7° |
| 2026-04-26 17:05 | 56.54489 | 19.71619 | 30821 ft | 416 kts | 7° |
| 2026-04-26 17:05 | 56.57307 | 19.72847 | 30945 ft | 417 kts | 7° |
| 2026-04-26 17:05 | 56.60125 | 19.74077 | 31099 ft | 416 kts | 7° |
| 2026-04-26 17:06 | 56.62938 | 19.75307 | 31308 ft | 416 kts | 7° |
| 2026-04-26 17:06 | 56.65709 | 19.76522 | 31534 ft | 414 kts | 7° |
| 2026-04-26 17:06 | 56.68540 | 19.77767 | 31704 ft | 413 kts | 7° |
| 2026-04-26 17:06 | 56.71299 | 19.78979 | 31831 ft | 413 kts | 7° |
| 2026-04-26 17:07 | 56.74124 | 19.80222 | 32078 ft | 411 kts | 7° |
| 2026-04-26 17:07 | 56.76859 | 19.81428 | 32353 ft | 408 kts | 7° |
| 2026-04-26 17:07 | 56.79613 | 19.82645 | 32621 ft | 407 kts | 7° |
| 2026-04-26 17:07 | 56.82361 | 19.83860 | 32866 ft | 406 kts | 7° |
| 2026-04-26 17:08 | 56.85103 | 19.85073 | 33041 ft | 406 kts | 6° |
| 2026-04-26 17:08 | 56.87853 | 19.86290 | 33118 ft | 408 kts | 7° |
| 2026-04-26 17:08 | 56.93387 | 19.88748 | 33130 ft | 409 kts | 7° |
| 2026-04-26 17:09 | 56.98031 | 19.90818 | 33133 ft | 411 kts | 7° |
| 2026-04-26 17:09 | 57.04490 | 19.93824 | 33340 ft | 412 kts | 8° |
| 2026-04-26 17:10 | 57.07252 | 19.95192 | 33522 ft | 411 kts | 8° |
| 2026-04-26 17:10 | 57.10010 | 19.96569 | 33623 ft | 411 kts | 8° |
| 2026-04-26 17:10 | 57.15540 | 19.99322 | 33816 ft | 411 kts | 8° |
| 2026-04-26 17:11 | 57.18301 | 20.00691 | 33970 ft | 411 kts | 8° |
| 2026-04-26 17:11 | 57.21057 | 20.02063 | 34087 ft | 411 kts | 8° |
| 2026-04-26 17:11 | 57.26576 | 20.04797 | 34258 ft | 411 kts | 8° |
| 2026-04-26 17:12 | 57.32109 | 20.07542 | 34405 ft | 412 kts | 8° |
| 2026-04-26 17:12 | 57.34878 | 20.08921 | 34478 ft | 412 kts | 8° |
| 2026-04-26 17:13 | 57.40404 | 20.11686 | 34724 ft | 410 kts | 8° |
| 2026-04-26 17:13 | 57.43153 | 20.13064 | 34901 ft | 409 kts | 8° |
| 2026-04-26 17:13 | 57.48656 | 20.15826 | 35117 ft | 410 kts | 8° |
| 2026-04-26 17:14 | 57.51411 | 20.17211 | 35238 ft | 410 kts | 9° |
| 2026-04-26 17:14 | 57.56932 | 20.19994 | 35443 ft | 412 kts | 9° |
| 2026-04-26 17:14 | 57.59696 | 20.21390 | 35547 ft | 412 kts | 9° |
| 2026-04-26 17:15 | 57.65193 | 20.24175 | 35755 ft | 412 kts | 9° |
| 2026-04-26 17:15 | 57.67964 | 20.25583 | 35857 ft | 413 kts | 9° |
| 2026-04-26 17:16 | 57.73533 | 20.28416 | 35980 ft | 417 kts | 9° |
| 2026-04-26 17:16 | 57.76332 | 20.29844 | 36081 ft | 417 kts | 9° |
| 2026-04-26 17:16 | 57.79129 | 20.31275 | 36216 ft | 416 kts | 9° |
| 2026-04-26 17:17 | 57.84722 | 20.34140 | 36393 ft | 418 kts | 9° |
| 2026-04-26 17:17 | 57.90330 | 20.37024 | 36588 ft | 418 kts | 9° |
| 2026-04-26 17:18 | 57.95943 | 20.39921 | 36782 ft | 419 kts | 10° |
| 2026-04-26 17:18 | 58.01581 | 20.42835 | 36876 ft | 421 kts | 10° |
| 2026-04-26 17:18 | 58.04406 | 20.44301 | 37001 ft | 420 kts | 10° |
| 2026-04-26 17:19 | 58.10047 | 20.47236 | 37082 ft | 421 kts | 10° |
| 2026-04-26 17:19 | 58.15705 | 20.50187 | 37087 ft | 422 kts | 10° |
| 2026-04-26 17:20 | 58.19460 | 20.52150 | 37082 ft | 423 kts | 10° |
| 2026-04-26 17:20 | 58.27057 | 20.56137 | 37084 ft | 424 kts | 10° |
| 2026-04-26 17:21 | 58.32701 | 20.59541 | 37072 ft | 429 kts | 16° |
| 2026-04-26 17:21 | 58.38197 | 20.63807 | 37073 ft | 430 kts | 17° |
| 2026-04-26 17:22 | 58.43715 | 20.68160 | 37057 ft | 429 kts | 17° |
| 2026-04-26 17:22 | 58.49239 | 20.72485 | 37086 ft | 429 kts | 16° |
| 2026-04-26 17:23 | 58.54774 | 20.76810 | 37066 ft | 430 kts | 17° |
| 2026-04-26 17:23 | 58.60310 | 20.81145 | 37042 ft | 430 kts | 17° |
| 2026-04-26 17:24 | 58.65879 | 20.85522 | 37047 ft | 430 kts | 17° |
| 2026-04-26 17:24 | 58.71371 | 20.89853 | 37038 ft | 429 kts | 17° |
| 2026-04-26 17:25 | 58.76893 | 20.94221 | 37063 ft | 430 kts | 17° |
| 2026-04-26 17:25 | 58.82431 | 20.98617 | 37041 ft | 430 kts | 17° |
| 2026-04-26 17:26 | 58.87965 | 21.03028 | 37033 ft | 431 kts | 17° |
| 2026-04-26 17:26 | 58.93510 | 21.07462 | 37023 ft | 431 kts | 17° |
| 2026-04-26 17:27 | 58.99049 | 21.11905 | 37025 ft | 431 kts | 17° |
| 2026-04-26 17:27 | 59.04249 | 21.17914 | 37029 ft | 446 kts | 36° |
| 2026-04-26 17:28 | 59.06390 | 21.22357 | 37013 ft | 457 kts | 49° |
| 2026-04-26 17:28 | 59.07817 | 21.27970 | 37017 ft | 475 kts | 69° |
| 2026-04-26 17:28 | 59.08202 | 21.34438 | 37017 ft | 492 kts | 89° |
| 2026-04-26 17:28 | 59.07458 | 21.41000 | 37018 ft | 506 kts | 109° |
| 2026-04-26 17:29 | 59.05387 | 21.49268 | 37034 ft | 510 kts | 111° |
| 2026-04-26 17:29 | 59.02262 | 21.64068 | 37008 ft | 509 kts | 104° |
| 2026-04-26 17:30 | 59.00043 | 21.77116 | 36992 ft | 510 kts | 103° |
| 2026-04-26 17:30 | 58.97848 | 21.90206 | 37004 ft | 511 kts | 104° |
| 2026-04-26 17:31 | 58.95586 | 22.03272 | 36992 ft | 512 kts | 104° |
| 2026-04-26 17:31 | 58.94735 | 22.09892 | 36971 ft | 502 kts | 90° |
| 2026-04-26 17:31 | 58.94660 | 22.16573 | 37010 ft | 494 kts | 80° |
| 2026-04-26 17:32 | 58.96175 | 22.29219 | 36976 ft | 474 kts | 59° |
| 2026-04-26 17:32 | 58.99072 | 22.40646 | 36980 ft | 472 kts | 56° |
| 2026-04-26 17:33 | 59.02059 | 22.51976 | 36964 ft | 472 kts | 57° |
| 2026-04-26 17:34 | 59.06409 | 22.69148 | 36982 ft | 473 kts | 58° |
| 2026-04-26 17:34 | 59.09262 | 22.80671 | 36943 ft | 473 kts | 58° |
| 2026-04-26 17:35 | 59.12100 | 22.92195 | 36933 ft | 472 kts | 58° |
| 2026-04-26 17:35 | 59.14931 | 23.03736 | 36955 ft | 472 kts | 59° |
| 2026-04-26 17:36 | 59.17751 | 23.15283 | 36936 ft | 471 kts | 59° |
| 2026-04-26 17:36 | 59.20556 | 23.26835 | 36916 ft | 471 kts | 59° |
| 2026-04-26 17:37 | 59.23329 | 23.38313 | 36942 ft | 470 kts | 59° |
| 2026-04-26 17:37 | 59.25789 | 23.50202 | 36917 ft | 476 kts | 67° |
| 2026-04-26 17:38 | 59.28507 | 23.68914 | 36894 ft | 476 kts | 68° |
| 2026-04-26 17:38 | 59.30374 | 23.81337 | 36887 ft | 475 kts | 68° |
| 2026-04-26 17:39 | 59.32306 | 23.93701 | 36886 ft | 475 kts | 68° |
| 2026-04-26 17:39 | 59.34244 | 24.06083 | 36888 ft | 476 kts | 68° |
| 2026-04-26 17:40 | 59.35845 | 24.16395 | 36882 ft | 476 kts | 68° |
| 2026-04-26 17:40 | 59.38073 | 24.30907 | 36883 ft | 476 kts | 68° |
| 2026-04-26 17:41 | 59.39967 | 24.43350 | 36853 ft | 476 kts | 68° |
| 2026-04-26 17:41 | 59.41852 | 24.55798 | 36853 ft | 476 kts | 68° |
| 2026-04-26 17:42 | 59.43681 | 24.68304 | 36859 ft | 477 kts | 70° |
| 2026-04-26 17:42 | 59.45297 | 24.80984 | 36863 ft | 479 kts | 71° |
| 2026-04-26 17:43 | 59.46875 | 24.93620 | 36860 ft | 480 kts | 71° |
| 2026-04-26 17:43 | 59.48484 | 25.06348 | 36853 ft | 479 kts | 71° |
| 2026-04-26 17:44 | 59.50091 | 25.19083 | 36851 ft | 480 kts | 71° |
| 2026-04-26 17:44 | 59.51769 | 25.31765 | 36804 ft | 475 kts | 63° |
| 2026-04-26 17:45 | 59.53310 | 25.37417 | 36855 ft | 464 kts | 50° |
| 2026-04-26 17:45 | 59.55327 | 25.42337 | 36814 ft | 459 kts | 40° |
| 2026-04-26 17:45 | 59.57750 | 25.46344 | 36808 ft | 452 kts | 28° |
| 2026-04-26 17:45 | 59.60434 | 25.49533 | 36845 ft | 450 kts | 27° |
| 2026-04-26 17:46 | 59.65797 | 25.55960 | 36828 ft | 451 kts | 27° |
| 2026-04-26 17:46 | 59.71158 | 25.62441 | 36832 ft | 452 kts | 28° |
| 2026-04-26 17:47 | 59.77628 | 25.70409 | 36823 ft | 454 kts | 30° |
| 2026-04-26 17:47 | 59.83611 | 25.79116 | 36819 ft | 458 kts | 36° |
| 2026-04-26 17:48 | 59.88324 | 25.87688 | 36817 ft | 461 kts | 41° |
| 2026-04-26 17:48 | 59.92356 | 25.97670 | 36815 ft | 469 kts | 57° |
| 2026-04-26 17:49 | 59.94789 | 26.09854 | 36800 ft | 480 kts | 74° |
| 2026-04-26 17:49 | 59.96130 | 26.22905 | 36808 ft | 481 kts | 75° |
| 2026-04-26 17:50 | 59.97410 | 26.36034 | 36800 ft | 482 kts | 75° |
| 2026-04-26 17:50 | 59.98713 | 26.49072 | 36799 ft | 482 kts | 75° |
| 2026-04-26 17:51 | 60.00042 | 26.62199 | 36780 ft | 482 kts | 75° |
| 2026-04-26 17:51 | 60.01366 | 26.75349 | 36786 ft | 482 kts | 75° |
| 2026-04-26 17:52 | 60.02675 | 26.88506 | 36781 ft | 483 kts | 75° |
| 2026-04-26 17:52 | 60.02894 | 26.90727 | 36771 ft | 483 kts | 75° |
| 2026-04-26 17:53 | 60.04015 | 27.02155 | 36765 ft | 483 kts | 75° |
| 2026-04-26 17:54 | 60.05932 | 27.21935 | 36770 ft | 483 kts | 76° |
| 2026-04-26 17:54 | 60.07190 | 27.35124 | 36761 ft | 483 kts | 76° |
| 2026-04-26 17:55 | 60.08439 | 27.48342 | 36754 ft | 483 kts | 76° |
| 2026-04-26 17:55 | 60.09674 | 27.61558 | 36772 ft | 483 kts | 76° |
| 2026-04-26 17:56 | 60.10894 | 27.74793 | 36753 ft | 483 kts | 75° |
| 2026-04-26 17:57 | 60.13299 | 28.01258 | 36734 ft | 482 kts | 76° |
| 2026-04-26 17:57 | 60.14478 | 28.14490 | 36729 ft | 482 kts | 77° |
| 2026-04-26 17:58 | 60.16799 | 28.40993 | 36714 ft | 482 kts | 78° |
| 2026-04-26 17:59 | 60.19043 | 28.60600 | 36673 ft | 476 kts | 59° |
| 2026-04-26 17:59 | 60.22707 | 28.71450 | 36660 ft | 467 kts | 41° |
| 2026-04-26 18:00 | 60.27392 | 28.80495 | 36686 ft | 467 kts | 40° |
| 2026-04-26 18:00 | 60.32679 | 28.87900 | 36755 ft | 462 kts | 27° |
| 2026-04-26 18:01 | 60.38292 | 28.94334 | 36696 ft | 465 kts | 28° |
| 2026-04-26 18:01 | 60.43919 | 29.00853 | 36683 ft | 467 kts | 28° |
| 2026-04-26 18:02 | 60.47641 | 29.05233 | 36679 ft | 468 kts | 28° |
| 2026-04-26 18:02 | 60.52330 | 29.10790 | 36350 ft | 471 kts | 29° |
| 2026-04-26 18:02 | 60.55149 | 29.14151 | 36110 ft | 469 kts | 28° |
| 2026-04-26 18:03 | 60.57950 | 29.17503 | 35873 ft | 466 kts | 28° |
| 2026-04-26 18:03 | 60.60734 | 29.20842 | 35632 ft | 463 kts | 28° |
| 2026-04-26 18:03 | 60.63498 | 29.24163 | 35398 ft | 460 kts | 27° |
| 2026-04-26 18:03 | 60.66249 | 29.27471 | 35162 ft | 457 kts | 29° |
| 2026-04-26 18:04 | 60.68984 | 29.30762 | 34929 ft | 455 kts | 29° |
| 2026-04-26 18:04 | 60.71703 | 29.34041 | 34740 ft | 453 kts | 28° |
| 2026-04-26 18:05 | 60.79870 | 29.43939 | 34671 ft | 459 kts | 29° |
| 2026-04-26 18:05 | 60.85398 | 29.50669 | 34685 ft | 463 kts | 29° |
| 2026-04-26 18:06 | 60.90950 | 29.57458 | 34683 ft | 465 kts | 28° |
| 2026-04-26 18:06 | 60.96510 | 29.64292 | 34668 ft | 466 kts | 29° |
| 2026-04-26 18:07 | 61.02066 | 29.71134 | 34659 ft | 465 kts | 30° |
| 2026-04-26 18:07 | 61.07612 | 29.77998 | 34679 ft | 464 kts | 29° |
| 2026-04-26 18:08 | 61.13146 | 29.84879 | 34682 ft | 463 kts | 29° |
| 2026-04-26 18:08 | 61.18667 | 29.91769 | 34664 ft | 463 kts | 28° |
| 2026-04-26 18:09 | 61.24174 | 29.98677 | 34677 ft | 462 kts | 29° |
| 2026-04-26 18:09 | 61.29674 | 30.05582 | 34661 ft | 462 kts | 30° |
| 2026-04-26 18:10 | 61.35164 | 30.12527 | 34663 ft | 462 kts | 31° |
| 2026-04-26 18:10 | 61.40650 | 30.19493 | 34667 ft | 462 kts | 29° |
| 2026-04-26 18:11 | 61.46133 | 30.26487 | 34671 ft | 462 kts | 29° |
| 2026-04-26 18:11 | 61.51616 | 30.33500 | 34677 ft | 462 kts | 29° |
| 2026-04-26 18:12 | 61.57100 | 30.40551 | 34665 ft | 463 kts | 30° |
| 2026-04-26 18:12 | 61.62587 | 30.47626 | 34668 ft | 463 kts | 31° |
| 2026-04-26 18:13 | 61.68080 | 30.54743 | 34675 ft | 464 kts | 30° |
| 2026-04-26 18:13 | 61.73580 | 30.61898 | 34673 ft | 465 kts | 30° |
| 2026-04-26 18:14 | 61.79086 | 30.69091 | 34672 ft | 465 kts | 31° |
| 2026-04-26 18:14 | 61.84589 | 30.76318 | 34671 ft | 466 kts | 30° |
| 2026-04-26 18:15 | 61.90060 | 30.83533 | 34669 ft | 467 kts | 31° |
| 2026-04-26 18:15 | 61.95578 | 30.90835 | 34672 ft | 467 kts | 30° |
| 2026-04-26 18:16 | 62.01093 | 30.98172 | 34664 ft | 468 kts | 31° |
| 2026-04-26 18:16 | 62.09370 | 31.09233 | 34673 ft | 468 kts | 31° |
| 2026-04-26 18:17 | 62.14889 | 31.16651 | 34669 ft | 469 kts | 31° |
| 2026-04-26 18:17 | 62.20409 | 31.24101 | 34670 ft | 469 kts | 31° |
| 2026-04-26 18:18 | 62.25032 | 31.30370 | 34669 ft | 470 kts | 31° |
| 2026-04-26 18:18 | 62.30529 | 31.37948 | 34677 ft | 469 kts | 32° |
| 2026-04-26 18:19 | 62.36037 | 31.45444 | 34679 ft | 468 kts | 30° |
| 2026-04-26 18:19 | 62.41506 | 31.52888 | 34682 ft | 468 kts | 31° |
| 2026-04-26 18:20 | 62.46991 | 31.60451 | 34678 ft | 468 kts | 32° |
| 2026-04-26 18:20 | 62.51580 | 31.66805 | 34678 ft | 467 kts | 31° |
| 2026-04-26 18:21 | 62.57939 | 31.75652 | 34683 ft | 467 kts | 32° |
| 2026-04-26 18:21 | 62.63406 | 31.83296 | 34691 ft | 467 kts | 32° |
| 2026-04-26 18:22 | 62.68874 | 31.90968 | 34686 ft | 468 kts | 32° |
| 2026-04-26 18:22 | 62.74734 | 31.96905 | 34695 ft | 466 kts | 13° |
| 2026-04-26 18:23 | 62.81150 | 31.98170 | 34692 ft | 464 kts | 356° |
| 2026-04-26 18:23 | 62.87617 | 31.97630 | 34701 ft | 466 kts | 358° |
| 2026-04-26 18:24 | 62.94106 | 31.97242 | 34698 ft | 467 kts | 358° |
| 2026-04-26 18:24 | 63.00616 | 31.96942 | 34696 ft | 468 kts | 358° |
| 2026-04-26 18:25 | 63.07138 | 31.96655 | 34711 ft | 469 kts | 358° |
| 2026-04-26 18:25 | 63.13674 | 31.96361 | 34712 ft | 470 kts | 358° |
| 2026-04-26 18:26 | 63.20210 | 31.96058 | 34718 ft | 470 kts | 358° |
| 2026-04-26 18:26 | 63.26746 | 31.95758 | 34727 ft | 470 kts | 358° |
| 2026-04-26 18:27 | 63.33272 | 31.95463 | 34739 ft | 468 kts | 359° |
| 2026-04-26 18:27 | 63.39747 | 31.95697 | 34733 ft | 468 kts | 1° |
| 2026-04-26 18:28 | 63.46285 | 31.96043 | 34739 ft | 467 kts | 1° |
| 2026-04-26 18:28 | 63.52789 | 31.96386 | 34731 ft | 467 kts | 0° |
| 2026-04-26 18:29 | 63.59276 | 31.96718 | 34742 ft | 466 kts | 0° |
| 2026-04-26 18:29 | 63.65717 | 31.97043 | 34739 ft | 466 kts | 0° |
| 2026-04-26 18:30 | 63.72203 | 31.97378 | 34744 ft | 466 kts | 0° |
| 2026-04-26 18:30 | 63.78691 | 31.97716 | 34756 ft | 466 kts | 0° |
| 2026-04-26 18:31 | 63.85187 | 31.98047 | 34753 ft | 467 kts | 0° |
| 2026-04-26 18:31 | 63.91686 | 31.98385 | 34758 ft | 468 kts | 0° |
| 2026-04-26 18:32 | 63.98196 | 31.98721 | 34763 ft | 468 kts | 0° |
| 2026-04-26 18:32 | 64.04717 | 31.99063 | 34766 ft | 469 kts | 1° |
| 2026-04-26 18:33 | 64.11255 | 31.99411 | 34771 ft | 470 kts | 0° |
| 2026-04-26 18:33 | 64.17800 | 31.99758 | 34775 ft | 471 kts | 0° |
| 2026-04-26 18:34 | 64.24350 | 32.00105 | 34777 ft | 471 kts | 360° |
| 2026-04-26 18:34 | 64.30905 | 32.00454 | 34780 ft | 471 kts | 0° |
| 2026-04-26 18:35 | 64.37465 | 32.00802 | 34778 ft | 471 kts | 360° |
| 2026-04-26 18:35 | 64.44025 | 32.01159 | 34779 ft | 471 kts | 0° |
| 2026-04-26 18:36 | 64.50573 | 32.01513 | 34791 ft | 470 kts | 0° |
| 2026-04-26 18:36 | 64.57106 | 32.01868 | 34778 ft | 469 kts | 0° |
| 2026-04-26 18:37 | 64.63624 | 32.02224 | 34780 ft | 468 kts | 0° |
| 2026-04-26 18:37 | 64.70126 | 32.02577 | 34791 ft | 467 kts | 0° |
| 2026-04-26 18:38 | 64.76617 | 32.02937 | 34787 ft | 467 kts | 0° |
| 2026-04-26 18:38 | 64.83108 | 32.03298 | 34801 ft | 467 kts | 0° |
| 2026-04-26 18:39 | 64.89599 | 32.03659 | 34793 ft | 467 kts | 0° |
| 2026-04-26 18:39 | 64.96101 | 32.04023 | 34808 ft | 467 kts | 0° |
| 2026-04-26 18:40 | 65.02640 | 32.04387 | 34813 ft | 473 kts | 0° |
| 2026-04-26 18:40 | 65.09207 | 32.04756 | 34813 ft | 476 kts | 0° |
| 2026-04-26 18:41 | 65.15838 | 32.05129 | 34802 ft | 477 kts | 0° |
| 2026-04-26 18:41 | 65.22472 | 32.05505 | 34810 ft | 477 kts | 0° |
| 2026-04-26 18:42 | 65.29106 | 32.05883 | 34810 ft | 477 kts | 0° |
| 2026-04-26 18:42 | 65.35743 | 32.06263 | 34810 ft | 477 kts | 0° |
| 2026-04-26 18:43 | 65.42379 | 32.06645 | 34809 ft | 477 kts | 0° |
| 2026-04-26 18:43 | 65.49001 | 32.07028 | 34820 ft | 477 kts | 0° |
| 2026-04-26 18:44 | 65.55636 | 32.07413 | 34817 ft | 477 kts | 0° |
| 2026-04-26 18:44 | 65.62265 | 32.07739 | 34817 ft | 477 kts | 0° |
| 2026-04-26 18:45 | 65.68897 | 32.08031 | 34821 ft | 477 kts | 0° |
| 2026-04-26 18:45 | 65.75527 | 32.08329 | 34819 ft | 476 kts | 0° |
| 2026-04-26 18:46 | 65.82136 | 32.08635 | 34819 ft | 475 kts | 0° |
| 2026-04-26 18:46 | 65.88737 | 32.08944 | 34823 ft | 474 kts | 0° |
| 2026-04-26 18:47 | 65.95289 | 32.09254 | 34815 ft | 467 kts | 0° |
| 2026-04-26 18:47 | 66.01769 | 32.09560 | 34823 ft | 465 kts | 0° |
| 2026-04-26 18:48 | 66.08228 | 32.09867 | 34822 ft | 463 kts | 0° |
| 2026-04-26 18:48 | 66.14672 | 32.10174 | 34824 ft | 463 kts | 0° |
| 2026-04-26 18:49 | 66.21118 | 32.10484 | 34826 ft | 464 kts | 0° |
| 2026-04-26 18:49 | 66.27574 | 32.10795 | 34827 ft | 465 kts | 0° |
| 2026-04-26 18:50 | 66.34058 | 32.11110 | 34832 ft | 467 kts | 0° |
| 2026-04-26 18:50 | 66.40561 | 32.11726 | 34814 ft | 469 kts | 7° |
| 2026-04-26 18:51 | 66.46935 | 32.15304 | 34820 ft | 470 kts | 13° |
| 2026-04-26 18:51 | 66.53273 | 32.19414 | 34819 ft | 471 kts | 13° |
| 2026-04-26 18:52 | 66.59629 | 32.23440 | 34821 ft | 471 kts | 13° |
| 2026-04-26 18:52 | 66.65997 | 32.27396 | 34816 ft | 471 kts | 13° |
| 2026-04-26 18:53 | 66.72368 | 32.31356 | 34819 ft | 472 kts | 13° |
| 2026-04-26 18:53 | 66.78696 | 32.35317 | 34810 ft | 472 kts | 13° |
| 2026-04-26 18:54 | 66.85063 | 32.39327 | 34817 ft | 471 kts | 13° |
| 2026-04-26 18:54 | 66.91427 | 32.43355 | 34787 ft | 472 kts | 12° |
| 2026-04-26 18:55 | 66.97773 | 32.47385 | 34696 ft | 463 kts | 12° |
| 2026-04-26 18:55 | 67.00865 | 32.49358 | 34385 ft | 455 kts | 13° |
| 2026-04-26 18:55 | 67.03915 | 32.51309 | 33948 ft | 451 kts | 13° |
| 2026-04-26 18:56 | 67.06967 | 32.53263 | 33244 ft | 453 kts | 13° |
| 2026-04-26 18:56 | 67.10027 | 32.55227 | 32556 ft | 454 kts | 12° |
| 2026-04-26 18:56 | 67.13092 | 32.57199 | 31858 ft | 455 kts | 13° |
| 2026-04-26 18:56 | 67.16168 | 32.59186 | 31149 ft | 456 kts | 13° |
| 2026-04-26 18:57 | 67.19247 | 32.61180 | 30432 ft | 457 kts | 13° |
| 2026-04-26 18:57 | 67.20291 | 32.61856 | 30186 ft | 458 kts | 13° |
| 2026-04-26 18:57 | 67.25439 | 32.65204 | 28710 ft | 460 kts | 13° |
| 2026-04-26 18:57 | 67.28535 | 32.67226 | 27864 ft | 458 kts | 13° |
| 2026-04-26 18:58 | 67.31618 | 32.69246 | 26997 ft | 457 kts | 13° |
| 2026-04-26 18:58 | 67.34697 | 32.71267 | 26113 ft | 456 kts | 13° |
| 2026-04-26 18:58 | 67.37768 | 32.73287 | 25374 ft | 453 kts | 13° |
| 2026-04-26 18:58 | 67.40798 | 32.75286 | 24727 ft | 447 kts | 13° |
| 2026-04-26 18:59 | 67.43793 | 32.77251 | 24095 ft | 441 kts | 12° |
| 2026-04-26 18:59 | 67.46800 | 32.78503 | 23564 ft | 433 kts | 2° |
| 2026-04-26 18:59 | 67.49757 | 32.78516 | 23049 ft | 423 kts | 358° |
| 2026-04-26 18:59 | 67.52679 | 32.78335 | 22439 ft | 416 kts | 357° |
| 2026-04-26 19:00 | 67.55558 | 32.78140 | 21817 ft | 411 kts | 357° |
| 2026-04-26 19:00 | 67.58395 | 32.77966 | 21220 ft | 405 kts | 357° |
| 2026-04-26 19:00 | 67.61201 | 32.77817 | 20630 ft | 402 kts | 358° |
| 2026-04-26 19:00 | 67.63983 | 32.77687 | 20019 ft | 397 kts | 358° |
| 2026-04-26 19:01 | 67.66737 | 32.77570 | 19433 ft | 397 kts | 358° |
| 2026-04-26 19:01 | 67.69533 | 32.77455 | 18827 ft | 405 kts | 358° |
| 2026-04-26 19:01 | 67.72318 | 32.77343 | 18216 ft | 404 kts | 358° |
| 2026-04-26 19:01 | 67.75111 | 32.77233 | 17549 ft | 399 kts | 358° |
| 2026-04-26 19:02 | 67.77868 | 32.77126 | 16939 ft | 393 kts | 357° |
| 2026-04-26 19:02 | 67.80576 | 32.77020 | 16359 ft | 386 kts | 357° |
| 2026-04-26 19:02 | 67.83245 | 32.76913 | 15777 ft | 381 kts | 357° |
| 2026-04-26 19:02 | 67.84138 | 32.76878 | 15583 ft | 379 kts | 357° |
| 2026-04-26 19:03 | 67.88474 | 32.76700 | 14639 ft | 371 kts | 357° |
| 2026-04-26 19:03 | 67.91045 | 32.76586 | 14058 ft | 367 kts | 358° |
| 2026-04-26 19:03 | 67.93582 | 32.76489 | 13498 ft | 363 kts | 358° |
| 2026-04-26 19:03 | 67.96098 | 32.76391 | 12894 ft | 359 kts | 358° |
| 2026-04-26 19:04 | 67.98578 | 32.76292 | 12357 ft | 354 kts | 358° |
| 2026-04-26 19:04 | 68.01022 | 32.76235 | 11861 ft | 349 kts | 358° |
| 2026-04-26 19:04 | 68.03443 | 32.76205 | 11328 ft | 347 kts | 358° |
| 2026-04-26 19:04 | 68.05850 | 32.76181 | 10977 ft | 342 kts | 358° |
| 2026-04-26 19:05 | 68.10542 | 32.76132 | 10686 ft | 334 kts | 358° |
| 2026-04-26 19:05 | 68.12065 | 32.76114 | 10574 ft | 326 kts | 358° |
| 2026-04-26 19:05 | 68.15022 | 32.76079 | 10389 ft | 310 kts | 358° |
| 2026-04-26 19:06 | 68.16432 | 32.76062 | 10304 ft | 303 kts | 358° |
| 2026-04-26 19:06 | 68.18501 | 32.76035 | 10176 ft | 292 kts | 358° |
| 2026-04-26 19:06 | 68.20497 | 32.76008 | 10065 ft | 282 kts | 358° |
| 2026-04-26 19:06 | 68.22430 | 32.75982 | 9948 ft | 273 kts | 358° |
| 2026-04-26 19:07 | 68.24301 | 32.75956 | 9844 ft | 264 kts | 358° |
| 2026-04-26 19:07 | 68.26113 | 32.75931 | 9674 ft | 259 kts | 358° |
| 2026-04-26 19:07 | 68.27902 | 32.75904 | 9406 ft | 255 kts | 358° |
| 2026-04-26 19:07 | 68.29669 | 32.75879 | 9124 ft | 253 kts | 358° |
| 2026-04-26 19:08 | 68.31419 | 32.75853 | 8866 ft | 250 kts | 358° |
| 2026-04-26 19:08 | 68.33150 | 32.75829 | 8625 ft | 247 kts | 358° |
| 2026-04-26 19:08 | 68.34851 | 32.75806 | 8342 ft | 240 kts | 358° |
| 2026-04-26 19:08 | 68.36486 | 32.75784 | 8123 ft | 231 kts | 358° |
| 2026-04-26 19:09 | 68.38066 | 32.75762 | 7864 ft | 223 kts | 358° |
| 2026-04-26 19:09 | 68.39588 | 32.75742 | 7635 ft | 215 kts | 358° |
| 2026-04-26 19:09 | 68.41072 | 32.75721 | 7423 ft | 210 kts | 358° |
| 2026-04-26 19:09 | 68.42543 | 32.75706 | 7206 ft | 213 kts | 359° |
| 2026-04-26 19:10 | 68.44039 | 32.75841 | 6981 ft | 217 kts | 0° |
| 2026-04-26 19:10 | 68.45549 | 32.76017 | 6744 ft | 217 kts | 1° |
| 2026-04-26 19:10 | 68.47053 | 32.76190 | 6494 ft | 215 kts | 0° |
| 2026-04-26 19:10 | 68.48547 | 32.76355 | 6278 ft | 214 kts | 0° |
| 2026-04-26 19:11 | 68.50030 | 32.76517 | 6017 ft | 213 kts | 0° |
| 2026-04-26 19:11 | 68.51501 | 32.76676 | 5761 ft | 211 kts | 0° |
| 2026-04-26 19:11 | 68.52972 | 32.76956 | 5480 ft | 212 kts | 3° |
| 2026-04-26 19:11 | 68.54441 | 32.77324 | 5167 ft | 213 kts | 3° |
| 2026-04-26 19:12 | 68.55908 | 32.77692 | 4867 ft | 215 kts | 3° |
| 2026-04-26 19:12 | 68.57406 | 32.78136 | 4550 ft | 218 kts | 11° |
| 2026-04-26 19:12 | 68.58739 | 32.80140 | 4288 ft | 219 kts | 40° |
| 2026-04-26 19:12 | 68.59655 | 32.83277 | 4177 ft | 209 kts | 51° |
| 2026-04-26 19:13 | 68.60445 | 32.86541 | 3970 ft | 202 kts | 52° |
| 2026-04-26 19:13 | 68.61203 | 32.89719 | 3742 ft | 196 kts | 52° |
| 2026-04-26 19:13 | 68.61931 | 32.92781 | 3555 ft | 188 kts | 52° |
| 2026-04-26 19:13 | 68.62635 | 32.95716 | 3355 ft | 181 kts | 52° |
| 2026-04-26 19:14 | 68.63464 | 32.98097 | 3113 ft | 167 kts | 20° |
| 2026-04-26 19:14 | 68.64565 | 32.98685 | 2985 ft | 163 kts | 351° |
| 2026-04-26 19:14 | 68.65574 | 32.97387 | 2814 ft | 161 kts | 329° |
| 2026-04-26 19:14 | 68.66249 | 32.96457 | 2658 ft | 160 kts | 336° |
| 2026-04-26 19:15 | 68.67555 | 32.94657 | 2418 ft | 158 kts | 330° |
| 2026-04-26 19:15 | 68.68475 | 32.93086 | 2260 ft | 153 kts | 327° |
| 2026-04-26 19:15 | 68.69344 | 32.91500 | 2081 ft | 148 kts | 327° |
| 2026-04-26 19:15 | 68.70198 | 32.89921 | 1997 ft | 149 kts | 327° |
| 2026-04-26 19:16 | 68.71058 | 32.88325 | 1834 ft | 147 kts | 326° |
| 2026-04-26 19:16 | 68.71882 | 32.86794 | 1631 ft | 141 kts | 327° |
| 2026-04-26 19:16 | 68.72688 | 32.85299 | 1429 ft | 141 kts | 326° |
| 2026-04-26 19:16 | 68.73494 | 32.83800 | 1234 ft | 139 kts | 326° |
| 2026-04-26 19:17 | 68.74322 | 32.82260 | 1034 ft | 146 kts | 326° |
| 2026-04-26 19:17 | 68.75184 | 32.80673 | 823 ft | 153 kts | 326° |
| 2026-04-26 19:17 | 68.76077 | 32.79015 | 574 ft | 154 kts | 325° |
| 2026-04-26 19:17 | 68.76953 | 32.77381 | 360 ft | 150 kts | 325° |
| 2026-04-26 19:18 | 68.77786 | 32.75848 | 253 ft | 134 kts | 326° |
| 2026-04-26 19:18 | 68.78408 | 32.74683 | 254 ft | 83 kts | 327° |
| 2026-04-26 19:18 | 68.78838 | 32.73901 | 254 ft | 49 kts | 326° |
| 2026-04-26 19:18 | 68.79004 | 32.73858 | 253 ft | 24 kts | 26° |
| 2026-04-26 19:19 | 68.79151 | 32.73867 | 253 ft | 25 kts | 326° |
| 2026-04-26 19:19 | 68.79101 | 32.73476 | 254 ft | 26 kts | 198° |
| 2026-04-26 19:19 | 68.78936 | 32.73724 | 254 ft | 34 kts | 146° |
| 2026-04-26 19:19 | 68.78704 | 32.74150 | 255 ft | 46 kts | 146° |
| 2026-04-26 19:20 | 68.78422 | 32.74677 | 254 ft | 38 kts | 146° |
| 2026-04-26 19:20 | 68.78319 | 32.74866 | 255 ft | 17 kts | 143° |
| 2026-04-26 19:20 | 68.78357 | 32.75224 | 253 ft | 16 kts | 57° |
| 2026-04-26 19:20 | 68.78413 | 32.75468 | 253 ft | 14 kts | 57° |
| 2026-04-26 19:21 | 68.78466 | 32.75529 | 253 ft | 7 kts | 327° |
| 2026-04-26 19:21 | 68.78497 | 32.75472 | 253 ft | 0 kts | 325° |